Time;durP1;ratioP1;P1;durP2;ratioP2;P2;SDS_P1;SDS_P2;PMS_P1;PMS_P2;Temp;Humidity;BMP_temperature;BMP_pressure;BME280_temperature;BME280_humidity;BME280_pressure;Samples;Min_cycle;Max_cycle;Signal;HPM_P1;HPM_P2
2023/05/29 00:00:23;;;;;;;25.98;4.03;;;;;;;;;;5046967;28;20089;-76
2023/05/29 00:02:50;;;;;;;15.65;3.25;;;;;;;;;;5057388;28;20048;-76
2023/05/29 00:05:17;;;;;;;22.38;4.05;;;;;;;;;;5057513;28;20041;-76
2023/05/29 00:07:43;;;;;;;22.02;3.20;;;;;;;;;;5059029;28;20693;-76
2023/05/29 00:10:10;;;;;;;20.02;4.07;;;;;;;;;;5054148;28;21466;-76
2023/05/29 00:12:37;;;;;;;17.95;3.15;;;;;;;;;;5059164;28;20383;-76
2023/05/29 00:15:04;;;;;;;16.23;2.67;;;;;;;;;;5034710;28;20040;-77
2023/05/29 00:17:33;;;;;;;15.65;2.75;;;;;;;;;;5058553;28;20387;-76
2023/05/29 00:20:01;;;;;;;16.13;3.03;;;;;;;;;;5035347;28;20059;-76
2023/05/29 00:22:27;;;;;;;17.05;2.60;;;;;;;;;;5036578;28;20040;-76
2023/05/29 00:24:53;;;;;;;17.50;3.30;;;;;;;;;;5057500;28;20059;-76
2023/05/29 00:27:20;;;;;;;17.15;3.03;;;;;;;;;;5035704;28;20044;-76
2023/05/29 00:29:46;;;;;;;18.92;3.40;;;;;;;;;;5061114;28;20048;-76
2023/05/29 00:32:12;;;;;;;22.73;4.40;;;;;;;;;;5043175;28;20052;-76
2023/05/29 00:34:38;;;;;;;20.73;3.80;;;;;;;;;;5061788;28;20442;-76
2023/05/29 00:37:05;;;;;;;27.42;3.72;;;;;;;;;;5061968;28;20036;-76
2023/05/29 00:39:31;;;;;;;23.75;3.72;;;;;;;;;;5064489;28;20134;-73
2023/05/29 00:41:57;;;;;;;22.05;3.10;;;;;;;;;;5058919;28;20054;-74
2023/05/29 00:44:23;;;;;;;24.10;4.00;;;;;;;;;;5061728;28;20810;-74
2023/05/29 00:46:52;;;;;;;25.73;4.03;;;;;;;;;;5057457;28;20044;-74
2023/05/29 00:49:18;;;;;;;23.38;4.40;;;;;;;;;;5060950;28;20052;-75
2023/05/29 00:51:44;;;;;;;24.40;4.13;;;;;;;;;;5061964;28;20051;-74
2023/05/29 00:54:12;;;;;;;25.08;3.72;;;;;;;;;;5060650;28;20495;-75
2023/05/29 00:56:43;;;;;;;23.92;3.50;;;;;;;;;;5040759;28;20492;-75
2023/05/29 00:59:10;;;;;;;14.93;2.97;;;;;;;;;;5036206;28;20056;-75
2023/05/29 01:01:36;;;;;;;19.27;3.92;;;;;;;;;;5043793;28;20044;-74
2023/05/29 01:04:03;;;;;;;20.60;3.00;;;;;;;;;;5079251;28;20036;-74
2023/05/29 01:06:30;;;;;;;22.05;3.30;;;;;;;;;;5062110;28;20060;-74
2023/05/29 01:08:56;;;;;;;17.30;3.22;;;;;;;;;;5063106;28;20084;-74
2023/05/29 01:11:32;;;;;;;13.57;2.78;;;;;;;;;;5061802;28;20051;-73
2023/05/29 01:13:59;;;;;;;16.38;2.97;;;;;;;;;;5062456;28;20040;-73
2023/05/29 01:16:35;;;;;;;13.55;2.47;;;;;;;;;;5063026;28;20051;-75
2023/05/29 01:19:11;;;;;;;12.27;2.30;;;;;;;;;;5062762;28;20048;-73
2023/05/29 01:21:49;;;;;;;16.23;2.67;;;;;;;;;;5065967;28;20202;-74
2023/05/29 01:24:24;;;;;;;14.45;3.28;;;;;;;;;;5061521;28;20051;-74
2023/05/29 01:26:53;;;;;;;25.17;4.13;;;;;;;;;;5059636;28;20160;-74
2023/05/29 01:29:22;;;;;;;17.73;2.90;;;;;;;;;;5060405;28;20109;-74
2023/05/29 01:31:50;;;;;;;18.45;3.10;;;;;;;;;;5058207;28;20048;-74
2023/05/29 01:34:16;;;;;;;19.52;3.05;;;;;;;;;;5068593;28;20050;-74
2023/05/29 01:36:42;;;;;;;20.10;3.45;;;;;;;;;;5057048;28;20174;-74
2023/05/29 01:39:09;;;;;;;14.57;2.53;;;;;;;;;;5056298;28;20051;-74
2023/05/29 01:41:35;;;;;;;18.50;3.55;;;;;;;;;;5069328;28;20063;-74
2023/05/29 01:44:08;;;;;;;8.80;1.95;;;;;;;;;;5057685;28;20071;-75
2023/05/29 01:46:35;;;;;;;15.18;3.08;;;;;;;;;;5058235;28;20043;-74
2023/05/29 01:49:02;;;;;;;12.60;2.45;;;;;;;;;;5056494;28;20048;-74
2023/05/29 01:51:28;;;;;;;14.65;3.50;;;;;;;;;;5057774;28;20055;-74
2023/05/29 01:53:54;;;;;;;17.73;2.58;;;;;;;;;;5057424;28;20664;-74
2023/05/29 01:56:21;;;;;;;14.82;2.45;;;;;;;;;;5056529;28;20070;-75
2023/05/29 01:58:47;;;;;;;11.75;2.72;;;;;;;;;;5059965;28;20092;-74
2023/05/29 02:01:13;;;;;;;18.33;2.40;;;;;;;;;;5059749;28;20591;-75
2023/05/29 02:03:39;;;;;;;18.85;2.78;;;;;;;;;;5057106;28;20153;-74
2023/05/29 02:06:06;;;;;;;13.80;2.90;;;;;;;;;;5059886;28;20139;-74
2023/05/29 02:08:33;;;;;;;15.50;3.22;;;;;;;;;;5059214;28;20052;-74
2023/05/29 02:10:59;;;;;;;18.45;2.67;;;;;;;;;;5071100;27;20062;-74
2023/05/29 02:13:30;;;;;;;11.65;2.33;;;;;;;;;;5059649;28;21810;-74
2023/05/29 02:15:56;;;;;;;15.55;2.78;;;;;;;;;;5061897;28;20059;-74
2023/05/29 02:18:23;;;;;;;11.07;2.83;;;;;;;;;;5061308;28;20040;-74
2023/05/29 02:20:49;;;;;;;12.25;2.10;;;;;;;;;;5057322;28;20044;-73
2023/05/29 02:23:15;;;;;;;15.80;2.60;;;;;;;;;;5059374;28;20143;-75
2023/05/29 02:25:42;;;;;;;22.73;3.08;;;;;;;;;;5058973;28;20668;-74
2023/05/29 02:28:08;;;;;;;16.58;2.60;;;;;;;;;;5060827;28;20043;-74
2023/05/29 02:30:35;;;;;;;17.77;3.00;;;;;;;;;;5056373;28;20482;-74
2023/05/29 02:33:01;;;;;;;24.27;4.10;;;;;;;;;;5041989;28;20044;-74
2023/05/29 02:35:27;;;;;;;16.30;3.28;;;;;;;;;;5060021;28;20078;-74
2023/05/29 02:37:53;;;;;;;12.93;2.85;;;;;;;;;;5051949;28;20046;-74
2023/05/29 02:40:20;;;;;;;16.88;3.42;;;;;;;;;;5064003;28;20071;-74
2023/05/29 02:42:46;;;;;;;12.73;2.65;;;;;;;;;;5060330;28;20079;-74
2023/05/29 02:45:12;;;;;;;14.77;2.58;;;;;;;;;;5057881;28;20760;-74
2023/05/29 02:47:39;;;;;;;16.02;2.75;;;;;;;;;;5057269;28;20063;-74
2023/05/29 02:50:06;;;;;;;14.80;3.50;;;;;;;;;;5069455;28;20036;-74
2023/05/29 02:52:32;;;;;;;18.25;3.28;;;;;;;;;;5055894;28;20569;-74
2023/05/29 02:54:59;;;;;;;17.05;3.47;;;;;;;;;;5038713;28;20553;-74
2023/05/29 02:57:25;;;;;;;15.60;3.08;;;;;;;;;;5054905;28;20048;-74
2023/05/29 02:59:51;;;;;;;13.00;2.47;;;;;;;;;;5056019;28;21728;-74
2023/05/29 03:02:21;;;;;;;17.75;3.03;;;;;;;;;;5060051;28;20051;-73
2023/05/29 03:04:50;;;;;;;12.18;2.28;;;;;;;;;;5060005;28;20441;-73
2023/05/29 03:07:16;;;;;;;17.40;3.00;;;;;;;;;;5055643;28;20044;-73
2023/05/29 03:09:42;;;;;;;12.77;2.35;;;;;;;;;;5058060;28;20192;-74
2023/05/29 03:12:08;;;;;;;13.50;2.60;;;;;;;;;;5056129;28;20044;-73
2023/05/29 03:14:35;;;;;;;14.00;2.80;;;;;;;;;;5058253;28;20093;-74
2023/05/29 03:17:02;;;;;;;16.85;3.00;;;;;;;;;;5069478;28;20066;-74
2023/05/29 03:19:28;;;;;;;17.15;3.30;;;;;;;;;;5058745;28;20527;-74
2023/05/29 03:21:54;;;;;;;16.85;2.90;;;;;;;;;;5056862;28;20048;-74
2023/05/29 03:24:20;;;;;;;20.52;3.85;;;;;;;;;;5054992;28;21685;-74
2023/05/29 03:26:47;;;;;;;24.60;3.00;;;;;;;;;;5052849;28;20044;-73
2023/05/29 03:29:13;;;;;;;16.17;3.17;;;;;;;;;;5046941;28;20090;-74
2023/05/29 03:31:39;;;;;;;18.33;3.10;;;;;;;;;;5054207;28;20044;-73
2023/05/29 03:34:05;;;;;;;13.93;2.40;;;;;;;;;;5055108;28;20065;-73
2023/05/29 03:36:31;;;;;;;19.63;2.97;;;;;;;;;;5056443;28;20091;-74
2023/05/29 03:38:58;;;;;;;17.73;3.05;;;;;;;;;;5033076;28;20044;-73
2023/05/29 03:41:25;;;;;;;10.90;2.55;;;;;;;;;;5051905;28;20779;-73
2023/05/29 03:43:51;;;;;;;12.55;3.13;;;;;;;;;;5050389;28;20052;-73
2023/05/29 03:46:17;;;;;;;19.23;2.80;;;;;;;;;;5052797;28;20055;-74
2023/05/29 03:48:43;;;;;;;16.45;3.10;;;;;;;;;;5050656;28;20044;-74
2023/05/29 03:51:10;;;;;;;19.70;3.13;;;;;;;;;;5054630;28;20799;-74
2023/05/29 03:53:36;;;;;;;19.35;3.08;;;;;;;;;;5053791;28;20591;-74
2023/05/29 03:56:02;;;;;;;12.60;2.30;;;;;;;;;;5053660;28;20079;-74
2023/05/29 03:58:28;;;;;;;15.32;3.17;;;;;;;;;;5036322;28;20083;-74
2023/05/29 04:00:54;;;;;;;18.45;2.88;;;;;;;;;;5050750;28;20416;-74
2023/05/29 04:03:21;;;;;;;17.85;3.05;;;;;;;;;;5048832;28;20050;-74
2023/05/29 04:05:48;;;;;;;19.35;2.97;;;;;;;;;;5051777;28;20106;-74
2023/05/29 04:08:14;;;;;;;18.77;3.40;;;;;;;;;;5053879;28;20036;-75
2023/05/29 04:10:40;;;;;;;16.73;3.40;;;;;;;;;;5053127;28;20052;-74
2023/05/29 04:13:06;;;;;;;19.25;2.90;;;;;;;;;;5052909;28;20511;-75
2023/05/29 04:15:35;;;;;;;16.48;3.40;;;;;;;;;;5054009;28;20044;-75
2023/05/29 04:18:01;;;;;;;15.13;2.72;;;;;;;;;;5040688;28;20044;-74
2023/05/29 04:20:27;;;;;;;20.92;2.90;;;;;;;;;;5055649;28;20043;-75
2023/05/29 04:22:53;;;;;;;16.55;2.72;;;;;;;;;;5059329;28;20939;-74
2023/05/29 04:25:19;;;;;;;19.30;3.38;;;;;;;;;;5057689;28;20665;-74
2023/05/29 04:27:48;;;;;;;17.38;3.05;;;;;;;;;;5056465;28;20116;-75
2023/05/29 04:30:15;;;;;;;19.30;3.42;;;;;;;;;;5059484;28;20059;-75
2023/05/29 04:32:41;;;;;;;12.80;2.78;;;;;;;;;;5056969;28;20140;-75
2023/05/29 04:35:07;;;;;;;19.48;3.63;;;;;;;;;;5053843;28;20068;-75
2023/05/29 04:37:38;;;;;;;20.75;3.25;;;;;;;;;;5051702;28;20524;-75
2023/05/29 04:40:09;;;;;;;20.83;3.78;;;;;;;;;;5058150;28;20052;-75
2023/05/29 04:42:35;;;;;;;15.38;3.60;;;;;;;;;;5038720;28;20049;-75
2023/05/29 04:45:02;;;;;;;12.95;2.70;;;;;;;;;;5058147;28;20040;-74
2023/05/29 04:47:28;;;;;;;17.45;3.17;;;;;;;;;;5069766;28;20048;-75
2023/05/29 04:49:54;;;;;;;18.63;3.25;;;;;;;;;;5054728;28;20032;-74
2023/05/29 04:52:23;;;;;;;14.73;3.53;;;;;;;;;;5054397;28;20563;-74
2023/05/29 04:54:49;;;;;;;24.15;4.30;;;;;;;;;;5065381;28;20143;-75
2023/05/29 04:57:15;;;;;;;26.23;3.38;;;;;;;;;;5074165;28;20130;-75
2023/05/29 04:59:42;;;;;;;22.67;3.88;;;;;;;;;;5073829;28;20036;-75
2023/05/29 05:02:08;;;;;;;18.13;3.58;;;;;;;;;;5063117;28;20467;-73
2023/05/29 05:04:34;;;;;;;19.65;4.25;;;;;;;;;;5060949;28;20043;-75
2023/05/29 05:07:01;;;;;;;17.60;4.18;;;;;;;;;;5062770;28;20052;-74
2023/05/29 05:09:28;;;;;;;20.23;3.25;;;;;;;;;;5061300;28;20178;-74
2023/05/29 05:11:54;;;;;;;17.60;3.50;;;;;;;;;;5058165;28;20048;-74
2023/05/29 05:14:20;;;;;;;22.13;3.90;;;;;;;;;;5059052;28;20050;-75
2023/05/29 05:16:46;;;;;;;15.93;3.78;;;;;;;;;;5063186;28;20434;-75
2023/05/29 05:19:12;;;;;;;20.98;3.70;;;;;;;;;;5062012;28;20063;-75
2023/05/29 05:21:39;;;;;;;24.38;3.85;;;;;;;;;;5042209;28;20046;-75
2023/05/29 05:24:05;;;;;;;19.58;3.55;;;;;;;;;;5066626;28;20047;-75
2023/05/29 05:26:31;;;;;;;18.95;3.97;;;;;;;;;;5066969;28;20051;-75
2023/05/29 05:28:57;;;;;;;19.52;3.72;;;;;;;;;;5052118;28;20043;-75
2023/05/29 05:31:24;;;;;;;20.92;3.80;;;;;;;;;;5060956;28;20052;-76
2023/05/29 05:33:50;;;;;;;30.33;4.80;;;;;;;;;;5061856;28;20847;-76
2023/05/29 05:36:16;;;;;;;18.17;3.10;;;;;;;;;;5063614;28;20103;-76
2023/05/29 05:38:42;;;;;;;29.88;5.03;;;;;;;;;;5066532;28;20048;-77
2023/05/29 05:41:08;;;;;;;27.35;4.75;;;;;;;;;;5065520;28;20052;-76
2023/05/29 05:43:35;;;;;;;14.77;3.13;;;;;;;;;;5064069;28;20051;-76
2023/05/29 05:46:01;;;;;;;23.67;3.65;;;;;;;;;;5065425;28;20161;-77
2023/05/29 05:48:27;;;;;;;24.63;4.00;;;;;;;;;;5066206;28;20171;-77
2023/05/29 05:50:54;;;;;;;19.63;4.35;;;;;;;;;;5045594;28;20125;-76
2023/05/29 05:53:30;;;;;;;19.40;4.00;;;;;;;;;;5065414;28;20043;-76
2023/05/29 05:55:57;;;;;;;26.02;3.80;;;;;;;;;;5049790;28;20117;-75
2023/05/29 05:58:23;;;;;;;26.00;4.35;;;;;;;;;;5045209;28;20148;-75
2023/05/29 06:00:52;;;;;;;16.63;3.47;;;;;;;;;;5065826;28;20040;-75
2023/05/29 06:03:18;;;;;;;16.00;3.35;;;;;;;;;;5063076;28;20052;-76
2023/05/29 06:05:44;;;;;;;18.73;3.90;;;;;;;;;;5065534;28;20112;-76
2023/05/29 06:08:10;;;;;;;19.90;3.83;;;;;;;;;;5066272;28;20044;-76
2023/05/29 06:10:37;;;;;;;18.80;4.03;;;;;;;;;;5062824;28;20078;-76
2023/05/29 06:13:03;;;;;;;26.35;5.25;;;;;;;;;;5078217;27;20062;-75
2023/05/29 06:15:29;;;;;;;24.63;4.53;;;;;;;;;;5065667;28;20051;-76
2023/05/29 06:17:55;;;;;;;22.85;4.00;;;;;;;;;;5066633;28;20044;-77
2023/05/29 06:20:23;;;;;;;17.48;3.50;;;;;;;;;;5044014;28;20052;-76
2023/05/29 06:22:50;;;;;;;21.17;3.83;;;;;;;;;;5044858;28;20048;-76
2023/05/29 06:25:19;;;;;;;20.38;3.88;;;;;;;;;;5067285;28;20095;-76
2023/05/29 06:27:46;;;;;;;23.05;3.72;;;;;;;;;;5042263;28;20043;-76
2023/05/29 06:30:12;;;;;;;17.58;3.63;;;;;;;;;;5053367;28;20048;-76
2023/05/29 06:32:38;;;;;;;21.92;4.47;;;;;;;;;;5059370;28;20040;-76
2023/05/29 06:35:06;;;;;;;17.60;3.60;;;;;;;;;;5064355;28;20516;-76
2023/05/29 06:37:32;;;;;;;23.77;4.80;;;;;;;;;;5046479;28;20063;-76
2023/05/29 06:39:58;;;;;;;25.30;4.13;;;;;;;;;;5063962;28;20138;-76
2023/05/29 06:42:25;;;;;;;21.17;4.40;;;;;;;;;;5063028;28;20047;-76
2023/05/29 06:44:51;;;;;;;21.33;4.93;;;;;;;;;;5046205;28;20792;-75
2023/05/29 06:47:18;;;;;;;28.23;4.82;;;;;;;;;;5065236;28;20040;-75
2023/05/29 06:49:44;;;;;;;25.15;4.10;;;;;;;;;;5065293;28;20036;-75
2023/05/29 06:52:10;;;;;;;23.88;4.50;;;;;;;;;;5061033;28;20082;-75
2023/05/29 06:54:36;;;;;;;21.42;4.13;;;;;;;;;;5063632;28;20469;-75
2023/05/29 06:57:02;;;;;;;40.70;4.13;;;;;;;;;;5064441;28;20056;-76
2023/05/29 06:59:28;;;;;;;22.90;4.65;;;;;;;;;;5063423;28;22006;-76
2023/05/29 07:01:54;;;;;;;24.20;4.88;;;;;;;;;;5059762;28;20070;-76
2023/05/29 07:04:20;;;;;;;21.13;3.97;;;;;;;;;;5064863;28;20083;-76
2023/05/29 07:06:46;;;;;;;19.55;4.03;;;;;;;;;;5062976;28;20071;-76
2023/05/29 07:09:12;;;;;;;26.40;3.92;;;;;;;;;;5059906;28;20121;-76
2023/05/29 07:11:39;;;;;;;22.23;4.15;;;;;;;;;;5055317;28;20041;-82
2023/05/29 07:14:05;;;;;;;15.50;3.35;;;;;;;;;;5073092;28;20059;-83
2023/05/29 07:16:31;;;;;;;16.75;3.42;;;;;;;;;;5077868;28;20126;-82
2023/05/29 07:18:57;;;;;;;24.83;4.30;;;;;;;;;;5075222;28;20036;-82
2023/05/29 07:21:23;;;;;;;24.42;3.92;;;;;;;;;;5055373;28;20043;-83
2023/05/29 07:23:49;;;;;;;18.92;4.07;;;;;;;;;;5062754;28;20144;-82
2023/05/29 07:26:16;;;;;;;17.85;4.30;;;;;;;;;;5061572;28;20040;-81
2023/05/29 07:28:42;;;;;;;24.67;4.20;;;;;;;;;;5041006;28;20073;-82
2023/05/29 07:31:08;;;;;;;24.75;4.68;;;;;;;;;;5059127;28;20063;-80
2023/05/29 07:33:34;;;;;;;16.15;3.72;;;;;;;;;;5056765;28;20052;-81
2023/05/29 07:36:01;;;;;;;21.75;4.18;;;;;;;;;;5056299;28;20048;-82
2023/05/29 07:38:27;;;;;;;24.85;4.85;;;;;;;;;;5035498;28;20050;-81
2023/05/29 07:40:53;;;;;;;33.60;6.50;;;;;;;;;;5063976;28;20059;-82
2023/05/29 07:43:19;;;;;;;19.88;3.85;;;;;;;;;;5061577;28;20666;-82
2023/05/29 07:45:45;;;;;;;22.52;3.47;;;;;;;;;;5078808;28;20565;-82
2023/05/29 07:48:11;;;;;;;20.92;4.25;;;;;;;;;;5065608;28;20036;-81
2023/05/29 07:50:38;;;;;;;23.40;4.63;;;;;;;;;;5066996;28;20761;-82
2023/05/29 07:53:04;;;;;;;19.58;4.38;;;;;;;;;;5062813;28;20043;-79
2023/05/29 07:55:30;;;;;;;28.63;4.35;;;;;;;;;;5076079;28;20056;-81
2023/05/29 07:57:56;;;;;;;18.10;3.97;;;;;;;;;;5062511;28;20048;-81
2023/05/29 08:00:23;;;;;;;19.05;3.72;;;;;;;;;;5062711;28;20050;-81
2023/05/29 08:02:49;;;;;;;23.77;4.15;;;;;;;;;;5058242;28;20063;-80
2023/05/29 08:05:15;;;;;;;25.25;4.60;;;;;;;;;;5062086;28;20044;-82
2023/05/29 08:07:43;;;;;;;21.38;4.05;;;;;;;;;;5043698;28;20093;-81
2023/05/29 08:10:09;;;;;;;22.80;4.03;;;;;;;;;;5062820;28;20463;-81
2023/05/29 08:12:36;;;;;;;27.40;5.22;;;;;;;;;;5060616;28;20323;-82
2023/05/29 08:15:02;;;;;;;21.17;4.22;;;;;;;;;;5039582;28;20044;-82
2023/05/29 08:17:28;;;;;;;22.05;3.55;;;;;;;;;;5044330;28;20046;-82
2023/05/29 08:19:55;;;;;;;18.75;3.60;;;;;;;;;;5063337;28;20063;-81
2023/05/29 08:22:22;;;;;;;27.85;4.25;;;;;;;;;;5059271;28;20526;-82
2023/05/29 08:24:48;;;;;;;25.90;4.30;;;;;;;;;;5058441;28;20058;-80
2023/05/29 08:27:14;;;;;;;33.17;4.97;;;;;;;;;;5059941;28;20477;-80
2023/05/29 08:29:40;;;;;;;20.98;3.85;;;;;;;;;;5060390;28;20052;-80
2023/05/29 08:32:07;;;;;;;20.55;4.25;;;;;;;;;;5058390;28;20147;-80
2023/05/29 08:34:33;;;;;;;18.83;4.18;;;;;;;;;;5056890;28;20480;-80
2023/05/29 08:36:59;;;;;;;15.38;4.03;;;;;;;;;;5064271;28;20056;-79
2023/05/29 08:39:25;;;;;;;18.58;4.25;;;;;;;;;;5049933;28;20043;-80
2023/05/29 08:42:01;;;;;;;24.45;5.05;;;;;;;;;;5084830;28;20048;-80
2023/05/29 08:44:29;;;;;;;22.17;3.70;;;;;;;;;;5081302;28;20047;-79
2023/05/29 08:46:56;;;;;;;22.48;4.40;;;;;;;;;;5077787;28;20048;-79
2023/05/29 08:49:22;;;;;;;21.80;4.63;;;;;;;;;;5080023;28;20047;-81
2023/05/29 08:51:50;;;;;;;21.38;4.28;;;;;;;;;;5088288;28;20047;-81
2023/05/29 08:54:16;;;;;;;25.63;3.92;;;;;;;;;;5056881;28;20052;-80
2023/05/29 08:56:43;;;;;;;19.52;4.38;;;;;;;;;;5074933;28;20078;-80
2023/05/29 08:59:09;;;;;;;17.58;4.28;;;;;;;;;;5076475;28;20098;-81
2023/05/29 09:01:38;;;;;;;10.40;2.88;;;;;;;;;;5075383;28;20129;-81
2023/05/29 09:04:04;;;;;;;17.90;3.83;;;;;;;;;;5053285;28;20067;-80
2023/05/29 09:06:31;;;;;;;16.08;3.90;;;;;;;;;;5074162;28;20164;-81
2023/05/29 09:08:57;;;;;;;24.67;4.43;;;;;;;;;;5076562;28;20052;-82
2023/05/29 09:11:23;;;;;;;28.17;4.95;;;;;;;;;;5056495;28;20082;-81
2023/05/29 09:13:50;;;;;;;19.85;3.50;;;;;;;;;;5060441;28;20048;-81
2023/05/29 09:16:17;;;;;;;21.00;3.90;;;;;;;;;;5063428;28;20052;-81
2023/05/29 09:18:45;;;;;;;26.73;4.93;;;;;;;;;;5076351;28;20063;-81
2023/05/29 09:21:25;;;;;;;21.75;4.15;;;;;;;;;;5078700;28;20117;-80
2023/05/29 09:23:52;;;;;;;20.13;3.53;;;;;;;;;;5092672;27;20488;-81
2023/05/29 09:26:21;;;;;;;25.73;4.72;;;;;;;;;;5072733;28;20125;-82
2023/05/29 09:28:47;;;;;;;25.67;3.70;;;;;;;;;;5071770;28;20044;-81
2023/05/29 09:31:16;;;;;;;25.15;4.35;;;;;;;;;;5076139;28;20073;-81
2023/05/29 09:33:50;;;;;;;17.15;3.53;;;;;;;;;;5072971;28;20187;-81
2023/05/29 09:36:23;;;;;;;18.77;4.32;;;;;;;;;;5075332;28;20067;-82
2023/05/29 09:38:50;;;;;;;20.37;4.37;;;;;;;;;;5076610;28;20047;-80
2023/05/29 09:41:24;;;;;;;22.90;4.07;;;;;;;;;;5072613;28;20397;-80
2023/05/29 09:43:50;;;;;;;17.23;3.43;;;;;;;;;;5073096;28;20999;-81
2023/05/29 09:46:20;;;;;;;42.53;5.60;;;;;;;;;;5055396;28;20166;-81
2023/05/29 09:48:47;;;;;;;26.95;3.95;;;;;;;;;;5069271;28;20091;-80
2023/05/29 09:51:21;;;;;;;34.45;4.70;;;;;;;;;;5071417;28;20048;-80
2023/05/29 09:53:48;;;;;;;27.63;4.85;;;;;;;;;;5079991;28;20054;-81
2023/05/29 09:56:17;;;;;;;31.00;4.15;;;;;;;;;;5071420;28;20056;-80
2023/05/29 09:58:45;;;;;;;25.27;4.20;;;;;;;;;;5068074;28;20051;-81
2023/05/29 10:01:18;;;;;;;22.58;4.00;;;;;;;;;;5069969;28;20036;-80
2023/05/29 10:03:44;;;;;;;24.38;4.35;;;;;;;;;;5066767;28;20043;-80
2023/05/29 10:06:17;;;;;;;22.90;4.05;;;;;;;;;;5074139;28;20480;-80
2023/05/29 10:08:53;;;;;;;16.30;3.83;;;;;;;;;;5072232;28;20044;-81
2023/05/29 10:11:24;;;;;;;26.05;4.35;;;;;;;;;;5072633;28;20048;-82
2023/05/29 10:13:51;;;;;;;18.75;3.30;;;;;;;;;;5071930;28;20213;-82
2023/05/29 10:16:21;;;;;;;18.23;3.38;;;;;;;;;;5071106;28;20067;-81
2023/05/29 10:18:57;;;;;;;17.73;3.30;;;;;;;;;;5075674;28;20047;-83
2023/05/29 10:21:25;;;;;;;23.20;4.15;;;;;;;;;;5074267;28;20095;-83
2023/05/29 10:23:51;;;;;;;17.77;4.07;;;;;;;;;;5071386;28;20040;-84
2023/05/29 10:26:18;;;;;;;18.50;4.13;;;;;;;;;;5075336;28;20048;-83
2023/05/29 10:28:51;;;;;;;21.58;4.72;;;;;;;;;;5077573;28;20488;-82
2023/05/29 10:31:21;;;;;;;16.65;3.40;;;;;;;;;;5080779;28;20040;-83
2023/05/29 10:34:01;;;;;;;19.60;4.18;;;;;;;;;;5051545;28;20122;-81
2023/05/29 10:36:30;;;;;;;16.13;3.60;;;;;;;;;;5074169;28;20162;-81
2023/05/29 10:38:56;;;;;;;18.30;4.55;;;;;;;;;;5054613;28;20062;-83
2023/05/29 10:41:26;;;;;;;14.48;3.92;;;;;;;;;;5079251;28;20039;-82
2023/05/29 10:43:54;;;;;;;21.27;3.80;;;;;;;;;;5079334;28;20048;-83
2023/05/29 10:46:20;;;;;;;18.60;4.50;;;;;;;;;;5059404;28;20177;-81
2023/05/29 10:48:49;;;;;;;18.65;3.78;;;;;;;;;;5078461;28;20044;-82
2023/05/29 10:51:31;;;;;;;21.63;4.32;;;;;;;;;;5094569;28;20055;-83
2023/05/29 10:53:57;;;;;;;17.33;3.63;;;;;;;;;;5078439;28;20924;-81
2023/05/29 10:56:25;;;;;;;16.92;4.30;;;;;;;;;;5076488;28;20048;-82
2023/05/29 10:58:57;;;;;;;25.30;4.40;;;;;;;;;;5079701;28;20111;-82
2023/05/29 11:01:25;;;;;;;27.23;4.05;;;;;;;;;;5094372;28;20114;-82
2023/05/29 11:03:52;;;;;;;18.75;4.90;;;;;;;;;;5080310;28;20044;-82
2023/05/29 11:06:19;;;;;;;19.55;4.13;;;;;;;;;;5080268;28;20097;-83
2023/05/29 11:08:47;;;;;;;20.50;3.88;;;;;;;;;;5077182;28;20107;-82
2023/05/29 11:11:13;;;;;;;19.10;3.92;;;;;;;;;;5076337;28;20590;-81
2023/05/29 11:13:44;;;;;;;26.98;4.53;;;;;;;;;;5072793;28;20051;-82
2023/05/29 11:16:12;;;;;;;19.02;4.20;;;;;;;;;;5074688;28;20048;-81
2023/05/29 11:18:42;;;;;;;15.68;4.10;;;;;;;;;;5053931;28;20044;-83
2023/05/29 11:21:15;;;;;;;14.32;3.38;;;;;;;;;;5069966;28;20048;-83
2023/05/29 11:23:43;;;;;;;20.80;4.10;;;;;;;;;;5064636;28;20051;-82
2023/05/29 11:26:09;;;;;;;18.83;4.20;;;;;;;;;;5058286;28;20147;-75
2023/05/29 11:28:37;;;;;;;16.20;3.88;;;;;;;;;;5059075;28;20184;-76
2023/05/29 11:31:08;;;;;;;15.20;3.63;;;;;;;;;;5056975;28;20044;-76
2023/05/29 11:33:36;;;;;;;16.35;3.17;;;;;;;;;;5055016;28;20043;-76
2023/05/29 11:36:02;;;;;;;16.73;3.58;;;;;;;;;;5050233;28;20040;-76
2023/05/29 11:38:31;;;;;;;25.08;4.00;;;;;;;;;;5034682;28;20168;-76
2023/05/29 11:41:00;;;;;;;25.17;5.07;;;;;;;;;;5057389;28;20048;-76
2023/05/29 11:43:26;;;;;;;17.80;3.10;;;;;;;;;;5061796;28;20044;-76
2023/05/29 11:45:52;;;;;;;20.58;4.10;;;;;;;;;;5061131;28;20043;-76
2023/05/29 11:48:18;;;;;;;18.52;3.55;;;;;;;;;;5059492;28;20073;-76
2023/05/29 11:50:45;;;;;;;18.67;4.28;;;;;;;;;;5058940;28;20044;-76
2023/05/29 11:53:11;;;;;;;18.60;3.55;;;;;;;;;;5058796;28;20072;-76
2023/05/29 11:55:37;;;;;;;21.23;4.63;;;;;;;;;;5055664;28;20128;-75
2023/05/29 11:58:04;;;;;;;22.92;3.88;;;;;;;;;;5063863;28;20044;-76
2023/05/29 12:00:35;;;;;;;17.45;3.40;;;;;;;;;;5076126;28;20043;-76
2023/05/29 12:03:05;;;;;;;14.25;3.50;;;;;;;;;;5064234;28;20298;-76
2023/05/29 12:05:55;;;;;;;20.88;4.75;;;;;;;;;;5059878;28;20052;-76
2023/05/29 12:08:24;;;;;;;21.90;4.90;;;;;;;;;;5060941;28;20947;-76
2023/05/29 12:10:51;;;;;;;19.92;3.65;;;;;;;;;;5064854;28;20043;-83
2023/05/29 12:13:21;;;;;;;15.77;2.80;;;;;;;;;;5072778;28;20067;-83
2023/05/29 12:15:49;;;;;;;18.80;3.88;;;;;;;;;;5073089;28;20113;-83
2023/05/29 12:18:15;;;;;;;21.25;3.70;;;;;;;;;;5074468;28;20531;-84
2023/05/29 12:20:42;;;;;;;16.65;3.97;;;;;;;;;;5070737;28;20082;-82
2023/05/29 12:23:08;;;;;;;19.08;4.85;;;;;;;;;;5067333;28;20093;-82
2023/05/29 12:25:37;;;;;;;10.85;3.08;;;;;;;;;;5084218;28;20061;-83
2023/05/29 12:28:03;;;;;;;22.02;3.65;;;;;;;;;;5075286;28;20071;-82
2023/05/29 12:30:29;;;;;;;16.75;3.80;;;;;;;;;;5089865;28;20104;-83
2023/05/29 12:32:56;;;;;;;14.52;3.33;;;;;;;;;;5100533;28;20040;-83
2023/05/29 12:35:23;;;;;;;17.02;3.15;;;;;;;;;;5087546;28;20175;-81
2023/05/29 12:37:56;;;;;;;23.77;4.40;;;;;;;;;;5085341;28;20043;-80
2023/05/29 12:40:26;;;;;;;11.30;2.95;;;;;;;;;;5078897;28;20051;-79
2023/05/29 12:42:58;;;;;;;13.07;3.05;;;;;;;;;;5063405;28;20048;-80
2023/05/29 12:45:28;;;;;;;13.20;2.70;;;;;;;;;;5097854;27;20052;-81
2023/05/29 12:47:58;;;;;;;19.80;3.28;;;;;;;;;;5076534;28;20048;-83
2023/05/29 12:50:26;;;;;;;21.92;3.45;;;;;;;;;;5077472;28;20597;-80
2023/05/29 12:52:58;;;;;;;15.50;2.83;;;;;;;;;;5077492;28;20071;-81
2023/05/29 12:55:24;;;;;;;16.02;3.15;;;;;;;;;;5075349;28;20082;-81
2023/05/29 12:57:50;;;;;;;14.63;3.88;;;;;;;;;;5072659;28;20040;-81
2023/05/29 13:00:17;;;;;;;15.10;3.22;;;;;;;;;;5056724;28;20399;-80
2023/05/29 13:02:44;;;;;;;19.27;3.38;;;;;;;;;;5075981;28;20786;-81
2023/05/29 13:05:10;;;;;;;12.48;3.40;;;;;;;;;;5060511;28;20699;-81
2023/05/29 13:07:36;;;;;;;15.90;3.30;;;;;;;;;;5076468;28;20185;-82
2023/05/29 13:10:02;;;;;;;18.80;3.40;;;;;;;;;;5069025;28;20035;-82
2023/05/29 13:12:28;;;;;;;15.85;3.40;;;;;;;;;;5076422;28;20076;-80
2023/05/29 13:14:57;;;;;;;19.33;3.20;;;;;;;;;;5055599;28;20052;-81
2023/05/29 13:17:23;;;;;;;11.38;2.92;;;;;;;;;;5075319;28;20044;-81
2023/05/29 13:19:49;;;;;;;19.20;4.40;;;;;;;;;;5075232;28;20044;-81
2023/05/29 13:22:15;;;;;;;14.85;3.42;;;;;;;;;;5079529;28;20115;-81
2023/05/29 13:24:41;;;;;;;15.88;3.40;;;;;;;;;;5056364;28;20790;-81
2023/05/29 13:27:08;;;;;;;14.68;3.15;;;;;;;;;;5079219;28;20500;-79
2023/05/29 13:29:35;;;;;;;11.98;2.75;;;;;;;;;;5078097;28;20090;-80
2023/05/29 13:32:01;;;;;;;16.83;3.10;;;;;;;;;;5066664;28;20058;-76
2023/05/29 13:34:30;;;;;;;12.77;3.25;;;;;;;;;;5069921;28;20051;-76
2023/05/29 13:36:56;;;;;;;19.83;4.25;;;;;;;;;;5048983;28;20036;-77
2023/05/29 13:39:22;;;;;;;13.95;3.20;;;;;;;;;;5070453;28;20056;-77
2023/05/29 13:41:49;;;;;;;13.52;3.20;;;;;;;;;;5070054;28;20040;-76
2023/05/29 13:44:15;;;;;;;13.85;3.17;;;;;;;;;;5063390;28;20048;-77
2023/05/29 13:46:41;;;;;;;18.90;3.97;;;;;;;;;;5062114;28;20052;-77
2023/05/29 13:49:07;;;;;;;9.85;2.40;;;;;;;;;;5045946;28;20046;-77
2023/05/29 13:51:33;;;;;;;18.33;3.78;;;;;;;;;;5064141;28;20052;-77
2023/05/29 13:54:00;;;;;;;18.60;4.22;;;;;;;;;;5064812;28;20111;-78
2023/05/29 13:56:26;;;;;;;16.23;2.83;;;;;;;;;;5070111;28;20169;-77
2023/05/29 13:58:53;;;;;;;14.18;3.42;;;;;;;;;;5066806;28;20511;-78
2023/05/29 14:01:19;;;;;;;10.63;2.53;;;;;;;;;;5066618;28;20046;-78
2023/05/29 14:03:46;;;;;;;20.20;3.53;;;;;;;;;;5063203;28;20047;-78
2023/05/29 14:06:12;;;;;;;11.35;2.63;;;;;;;;;;5065205;28;20035;-78
2023/05/29 14:08:38;;;;;;;15.32;3.25;;;;;;;;;;5067365;28;20068;-78
2023/05/29 14:11:05;;;;;;;17.92;3.65;;;;;;;;;;5069492;28;20556;-78
2023/05/29 14:13:31;;;;;;;14.60;3.28;;;;;;;;;;5069783;28;20036;-78
2023/05/29 14:15:57;;;;;;;19.00;3.42;;;;;;;;;;5065188;28;20050;-78
2023/05/29 14:18:23;;;;;;;11.95;3.05;;;;;;;;;;5066158;28;20109;-78
2023/05/29 14:20:49;;;;;;;16.75;3.88;;;;;;;;;;5066203;28;20052;-75
2023/05/29 14:23:17;;;;;;;13.70;3.17;;;;;;;;;;5069495;28;20040;-82
2023/05/29 14:25:44;;;;;;;12.60;2.83;;;;;;;;;;5066864;28;20058;-82
2023/05/29 14:28:10;;;;;;;14.10;2.88;;;;;;;;;;5081928;27;20044;-81
2023/05/29 14:30:37;;;;;;;12.27;2.90;;;;;;;;;;5069900;28;20216;-82